Time;durP1;ratioP1;P1;durP2;ratioP2;P2;SDS_P1;SDS_P2;PMS_P1;PMS_P2;Temp;Humidity;BMP_temperature;BMP_pressure;BME280_temperature;BME280_humidity;BME280_pressure;Samples;Min_cycle;Max_cycle;Signal;HPM_P1;HPM_P2
2023/05/09 00:00:43;;;;;;;9.43;8.43;;;;;;;19.42;52.28;100057.72;5032545;28;20054;-78
2023/05/09 00:03:11;;;;;;;10.02;9.02;;;;;;;19.45;52.68;100059.25;5032158;28;20069;-78
2023/05/09 00:05:38;;;;;;;11.05;9.77;;;;;;;19.46;52.80;100052.94;5031791;28;20060;-77
2023/05/09 00:08:04;;;;;;;8.52;7.60;;;;;;;19.45;52.59;100053.91;5031615;28;20463;-78
2023/05/09 00:10:31;;;;;;;9.35;8.30;;;;;;;19.44;52.84;100044.22;5030957;28;20053;-77
2023/05/09 00:12:58;;;;;;;10.48;9.00;;;;;;;19.43;52.73;100043.38;4919904;22;20057;-78
2023/05/09 00:15:25;;;;;;;11.52;9.60;;;;;;;19.42;52.98;100036.34;5048287;28;20076;-79
2023/05/09 00:17:51;;;;;;;10.57;9.48;;;;;;;19.43;53.01;100032.69;5049525;28;20082;-79
2023/05/09 00:20:18;;;;;;;10.73;9.63;;;;;;;19.43;52.96;100038.03;5051085;28;20095;-79
2023/05/09 00:22:45;;;;;;;9.90;8.80;;;;;;;19.40;53.44;100036.47;5069269;28;20060;-78
2023/05/09 00:25:11;;;;;;;12.45;10.23;;;;;;;19.40;53.54;100033.81;5070679;28;20049;-79
2023/05/09 00:27:38;;;;;;;12.60;10.40;;;;;;;19.40;53.73;100023.13;5070730;28;20080;-79
2023/05/09 00:30:05;;;;;;;15.32;10.20;;;;;;;19.39;53.46;100013.44;5071185;28;20127;-78
2023/05/09 00:32:33;;;;;;;10.13;8.90;;;;;;;19.38;53.64;100019.78;5070763;28;20074;-79
2023/05/09 00:34:59;;;;;;;12.55;10.57;;;;;;;19.37;53.86;100012.72;5070535;28;20110;-79
2023/05/09 00:37:29;;;;;;;11.30;10.20;;;;;;;19.35;54.27;99997.84;5070343;28;20045;-79
2023/05/09 00:39:55;;;;;;;11.35;9.98;;;;;;;19.35;53.96;100004.03;5070675;28;20049;-79
2023/05/09 00:42:22;;;;;;;10.80;8.88;;;;;;;19.32;53.86;100006.97;5070494;28;20106;-78
2023/05/09 00:44:48;;;;;;;10.88;9.75;;;;;;;19.31;54.07;99996.44;5070352;28;20067;-78
2023/05/09 00:47:14;;;;;;;12.75;10.15;;;;;;;19.29;54.38;99993.06;5069999;28;20506;-78
2023/05/09 00:49:41;;;;;;;10.52;9.25;;;;;;;19.26;54.24;99989.69;5070915;28;20052;-80
2023/05/09 00:52:08;;;;;;;12.40;10.43;;;;;;;19.25;54.26;99992.50;5070501;28;20080;-79
2023/05/09 00:54:34;;;;;;;10.35;9.27;;;;;;;19.22;54.42;99996.28;5070308;28;20147;-80
2023/05/09 00:57:01;;;;;;;12.55;9.65;;;;;;;19.20;54.47;99990.25;5069949;28;20072;-80
2023/05/09 00:59:27;;;;;;;14.40;9.55;;;;;;;19.18;54.91;99986.88;5070402;28;20045;-80
2023/05/09 01:01:53;;;;;;;11.82;10.63;;;;;;;19.16;54.72;99978.16;5070259;28;20564;-80
2023/05/09 01:04:20;;;;;;;10.65;9.55;;;;;;;19.14;54.84;99980.97;5068983;28;20060;-80
2023/05/09 01:07:14;;;;;;;12.02;10.18;;;;;;;19.07;55.49;99969.19;5069387;28;20143;-80
2023/05/09 01:09:46;;;;;;;;;;;;;;;19.10;54.01;99974.22;5069655;28;20052;-80
2023/05/09 01:12:30;;;;;;;11.90;8.38;;;;;;;19.06;54.84;99970.13;5070161;28;20332;-80
2023/05/09 01:15:00;;;;;;;11.35;9.80;;;;;;;19.05;54.06;99957.78;5069887;28;20067;-80
2023/05/09 01:17:57;;;;;;;12.07;9.50;;;;;;;18.96;55.27;99963.91;5068717;28;20052;-80
2023/05/09 01:20:59;;;;;;;9.65;8.75;;;;;;;18.88;55.31;99957.44;5069023;28;20059;-80
2023/05/09 01:23:44;;;;;;;9.68;8.68;;;;;;;18.88;55.29;99951.28;5055362;28;20100;-80
2023/05/09 01:26:16;;;;;;;8.90;8.02;;;;;;;18.84;55.17;99958.69;5069322;28;20048;-80
2023/05/09 01:29:00;;;;;;;22.67;9.93;;;;;;;18.81;55.65;99948.31;5069724;28;20072;-80
2023/05/09 01:31:27;;;;;;;10.45;9.35;;;;;;;18.79;55.17;99939.59;5070011;28;20056;-80
2023/05/09 01:33:58;;;;;;;10.77;9.18;;;;;;;18.75;55.81;99948.84;5070392;28;20049;-80
2023/05/09 01:36:28;;;;;;;10.60;9.52;;;;;;;18.73;55.35;99946.31;5069626;28;20143;-80
2023/05/09 01:38:57;;;;;;;9.77;8.75;;;;;;;18.70;54.94;99938.59;5069411;28;20503;-80
2023/05/09 01:41:25;;;;;;;11.25;9.13;;;;;;;18.68;55.26;99940.53;5069928;28;20106;-80
2023/05/09 01:43:54;;;;;;;9.13;8.20;;;;;;;18.64;55.52;99944.47;5070013;28;20079;-80
2023/05/09 01:46:24;;;;;;;11.13;8.65;;;;;;;18.62;55.13;99938.44;5069397;28;20530;-80
2023/05/09 01:48:51;;;;;;;10.80;8.68;;;;;;;18.59;55.16;99942.22;5069381;28;20057;-80
2023/05/09 01:51:19;;;;;;;10.77;9.50;;;;;;;18.56;55.17;99946.94;5068583;28;20143;-80
2023/05/09 01:53:47;;;;;;;10.27;9.27;;;;;;;18.51;55.68;99944.72;5069976;28;20052;-80
2023/05/09 01:56:15;;;;;;;11.02;9.38;;;;;;;18.49;55.28;99934.19;5069497;28;20053;-80
2023/05/09 01:58:42;;;;;;;10.25;9.25;;;;;;;18.47;55.75;99935.28;5069266;28;20080;-79
2023/05/09 02:01:09;;;;;;;10.07;9.05;;;;;;;18.45;55.36;99930.09;5069518;28;20052;-79
2023/05/09 02:03:37;;;;;;;13.00;8.82;;;;;;;18.43;55.60;99925.88;5069870;28;20060;-80
2023/05/09 02:06:04;;;;;;;13.20;10.35;;;;;;;18.39;55.67;99911.97;5069409;28;20143;-80
2023/05/09 02:08:32;;;;;;;8.90;7.60;;;;;;;18.38;55.78;99923.59;5068988;28;20123;-80
2023/05/09 02:10:58;;;;;;;10.02;8.75;;;;;;;18.35;55.88;99922.06;5069526;28;20122;-80
2023/05/09 02:13:25;;;;;;;8.98;8.07;;;;;;;18.35;56.07;99922.06;5069363;28;20481;-79
2023/05/09 02:15:52;;;;;;;10.55;8.68;;;;;;;18.35;56.11;99922.06;5067800;28;20048;-79
2023/05/09 02:18:19;;;;;;;9.75;8.75;;;;;;;18.35;56.64;99914.06;5067688;28;20052;-80
2023/05/09 02:20:46;;;;;;;9.43;8.45;;;;;;;18.36;56.16;99915.75;5069500;28;20080;-80
2023/05/09 02:23:12;;;;;;;9.77;8.77;;;;;;;18.36;56.20;99918.41;5069422;28;20506;-80
2023/05/09 02:25:39;;;;;;;9.93;8.93;;;;;;;18.38;56.14;99918.28;5069141;28;20538;-80
2023/05/09 02:28:09;;;;;;;9.30;8.32;;;;;;;18.37;56.26;99919.25;5069014;28;20127;-80
2023/05/09 02:30:40;;;;;;;11.50;9.52;;;;;;;18.38;56.89;99920.13;5068068;28;20053;-80
2023/05/09 02:33:10;;;;;;;9.68;8.00;;;;;;;18.40;56.14;99915.47;5069347;28;20107;-80
2023/05/09 02:35:41;;;;;;;8.70;7.80;;;;;;;18.41;56.63;99917.16;5069060;28;20052;-79
2023/05/09 02:38:07;;;;;;;10.13;8.55;;;;;;;18.42;56.08;99909.03;5068322;28;20076;-79
2023/05/09 02:40:35;;;;;;;11.95;9.50;;;;;;;18.42;56.15;99901.03;5072923;28;20076;-80
2023/05/09 02:43:01;;;;;;;10.38;9.38;;;;;;;18.45;56.14;99907.91;5072889;28;20056;-80
2023/05/09 02:45:28;;;;;;;8.48;7.57;;;;;;;18.42;55.99;99901.03;5072473;28;20590;-79
2023/05/09 02:47:54;;;;;;;8.63;7.72;;;;;;;18.45;56.10;99902.59;5072613;28;20056;-79
2023/05/09 02:50:20;;;;;;;9.60;8.50;;;;;;;18.43;56.14;99902.72;5073019;28;20453;-79
2023/05/09 02:52:47;;;;;;;9.80;8.38;;;;;;;18.42;56.15;99900.19;5072712;28;20098;-79
2023/05/09 02:55:14;;;;;;;13.45;9.23;;;;;;;18.43;55.84;99897.38;5072457;28;20076;-79
2023/05/09 02:57:40;;;;;;;11.35;8.35;;;;;;;18.41;55.81;99893.16;5072409;28;20087;-79
2023/05/09 03:00:08;;;;;;;9.00;8.10;;;;;;;18.39;56.10;99890.63;5072566;28;20087;-79
2023/05/09 03:02:35;;;;;;;10.57;9.23;;;;;;;18.38;55.80;99896.13;5072629;28;20056;-79
2023/05/09 03:05:02;;;;;;;10.18;8.63;;;;;;;18.34;56.18;99896.38;5072209;28;20399;-79
2023/05/09 03:07:29;;;;;;;9.18;8.27;;;;;;;18.33;55.75;99893.84;5072109;28;20102;-79
2023/05/09 03:09:56;;;;;;;11.05;8.60;;;;;;;18.31;56.09;99895.78;5072451;28;20056;-79
2023/05/09 03:12:22;;;;;;;11.35;8.45;;;;;;;18.29;55.95;99893.28;5071260;28;20133;-79
2023/05/09 03:14:49;;;;;;;10.93;9.50;;;;;;;18.28;56.56;99896.91;5072104;28;20071;-79
2023/05/09 03:17:19;;;;;;;10.60;9.50;;;;;;;18.25;56.31;99891.88;5071732;28;20461;-79
2023/05/09 03:19:47;;;;;;;9.90;8.88;;;;;;;18.23;56.03;99883.16;5072212;28;20422;-79
2023/05/09 03:22:14;;;;;;;11.43;8.93;;;;;;;18.20;56.24;99884.28;5072204;28;20099;-79
2023/05/09 03:24:40;;;;;;;9.98;8.98;;;;;;;18.18;56.33;99872.06;5072051;28;20135;-79
2023/05/09 03:27:06;;;;;;;10.45;9.35;;;;;;;18.15;56.02;99872.31;5071520;28;20084;-79
2023/05/09 03:29:33;;;;;;;9.70;8.70;;;;;;;18.13;56.13;99879.63;5072209;28;20048;-79
2023/05/09 03:31:59;;;;;;;10.02;9.00;;;;;;;18.09;56.29;99874.56;5072001;28;20052;-79
2023/05/09 03:34:26;;;;;;;10.30;9.30;;;;;;;18.07;56.48;99875.63;5070776;28;20510;-79
2023/05/09 03:36:52;;;;;;;9.27;8.30;;;;;;;18.04;56.69;99876.75;5071073;28;20288;-79
2023/05/09 03:39:18;;;;;;;10.50;9.40;;;;;;;18.04;56.36;99881.22;5070528;28;20102;-79
2023/05/09 03:41:44;;;;;;;10.88;9.68;;;;;;;18.03;56.78;99868.88;5070713;28;20101;-79
2023/05/09 03:44:11;;;;;;;10.43;9.27;;;;;;;18.03;56.63;99864.41;5071923;28;20048;-79
2023/05/09 03:46:37;;;;;;;12.93;9.40;;;;;;;18.03;56.44;99866.22;5071073;28;20063;-79
2023/05/09 03:49:04;;;;;;;14.52;10.50;;;;;;;18.01;56.66;99866.34;5071625;28;20052;-80
2023/05/09 03:51:31;;;;;;;10.60;9.30;;;;;;;18.00;56.75;99861.16;5071685;28;20076;-79
2023/05/09 03:53:57;;;;;;;10.65;8.65;;;;;;;18.00;56.67;99858.50;5071669;28;20056;-79
2023/05/09 03:56:24;;;;;;;10.90;8.25;;;;;;;17.99;56.58;99863.00;5070209;28;20091;-79
2023/05/09 03:58:51;;;;;;;11.43;9.13;;;;;;;17.98;56.91;99855.94;5071128;28;20040;-79
2023/05/09 04:01:17;;;;;;;10.75;9.68;;;;;;;18.00;56.61;99854.00;5071418;28;20557;-79
2023/05/09 04:03:43;;;;;;;12.43;8.95;;;;;;;18.00;56.65;99853.16;5071483;28;20060;-80
2023/05/09 04:06:11;;;;;;;10.00;8.93;;;;;;;17.98;56.53;99854.16;5069691;28;20582;-79
2023/05/09 04:08:37;;;;;;;9.90;8.63;;;;;;;17.98;56.71;99856.81;5071095;28;20052;-79
2023/05/09 04:11:04;;;;;;;10.65;9.57;;;;;;;17.98;56.41;99856.81;5071490;28;20057;-79
2023/05/09 04:13:32;;;;;;;9.68;8.68;;;;;;;17.97;56.84;99857.78;5071178;28;20053;-79
2023/05/09 04:15:59;;;;;;;12.30;10.00;;;;;;;17.98;56.82;99855.94;5070934;28;20087;-79
2023/05/09 04:18:25;;;;;;;12.75;9.77;;;;;;;18.00;56.67;99856.69;5070739;28;20072;-79
2023/05/09 04:20:52;;;;;;;9.93;8.98;;;;;;;18.00;56.80;99851.34;5070989;28;20048;-79
2023/05/09 04:23:18;;;;;;;11.27;9.45;;;;;;;18.02;56.38;99851.22;5071219;28;20094;-79
2023/05/09 04:25:45;;;;;;;10.13;9.02;;;;;;;18.02;56.50;99852.03;5070897;28;20052;-79
2023/05/09 04:28:11;;;;;;;12.93;9.55;;;;;;;18.03;56.67;99842.25;5070589;28;20102;-79
2023/05/09 04:30:37;;;;;;;10.98;9.43;;;;;;;18.03;56.57;99840.44;5070926;28;20072;-79
2023/05/09 04:33:04;;;;;;;10.57;9.48;;;;;;;18.04;56.64;99844.78;5070944;28;20052;-79
2023/05/09 04:35:30;;;;;;;12.25;9.65;;;;;;;18.05;56.36;99835.81;5070545;28;20075;-79
2023/05/09 04:37:57;;;;;;;9.77;8.75;;;;;;;18.06;56.65;99839.31;5070274;28;20499;-79
2023/05/09 04:40:23;;;;;;;10.48;9.45;;;;;;;18.06;56.79;99842.81;5069566;28;20131;-79
2023/05/09 04:42:52;;;;;;;10.98;9.82;;;;;;;18.07;56.58;99839.19;5070687;28;20075;-79
2023/05/09 04:45:18;;;;;;;10.10;9.10;;;;;;;18.08;56.83;99843.56;5070471;28;20147;-79
2023/05/09 04:47:45;;;;;;;8.73;7.82;;;;;;;18.08;56.49;99829.41;5070132;28;20051;-79
2023/05/09 04:50:11;;;;;;;9.75;8.63;;;;;;;18.08;56.85;99835.59;5071034;28;20048;-79
2023/05/09 04:52:38;;;;;;;9.82;8.85;;;;;;;18.11;56.82;99834.47;5069190;28;20534;-79
2023/05/09 04:55:05;;;;;;;10.48;9.48;;;;;;;18.12;56.46;99835.31;5070154;28;20418;-79
2023/05/09 04:57:31;;;;;;;15.38;10.05;;;;;;;18.13;56.46;99834.34;5070160;28;20052;-79
2023/05/09 04:59:57;;;;;;;10.23;9.18;;;;;;;18.15;56.62;99829.69;5070355;28;20136;-79
2023/05/09 05:02:24;;;;;;;11.75;8.65;;;;;;;18.15;56.39;99830.56;5069644;28;20087;-79
2023/05/09 05:04:50;;;;;;;21.20;10.40;;;;;;;18.18;56.42;99824.09;5070185;28;20101;-79
2023/05/09 05:07:20;;;;;;;13.93;10.07;;;;;;;18.20;56.49;99827.47;5070044;28;20052;-79
2023/05/09 05:09:46;;;;;;;13.57;9.05;;;;;;;18.22;56.02;99825.53;5070364;28;20110;-79
2023/05/09 05:12:12;;;;;;;10.35;9.25;;;;;;;18.24;56.20;99815.56;5068755;28;20140;-79
2023/05/09 05:14:39;;;;;;;12.65;10.30;;;;;;;18.28;56.42;99810.81;5068796;28;20056;-79
2023/05/09 05:17:05;;;;;;;10.77;9.10;;;;;;;18.30;55.93;99809.69;5069446;28;20052;-79
2023/05/09 05:19:31;;;;;;;10.80;9.70;;;;;;;18.33;56.69;99809.44;5069025;28;20358;-79
2023/05/09 05:21:58;;;;;;;13.10;9.68;;;;;;;18.36;56.42;99805.66;5069937;28;20510;-79
2023/05/09 05:24:24;;;;;;;10.93;9.82;;;;;;;18.40;56.74;99803.53;5070191;28;20521;-79
2023/05/09 05:26:51;;;;;;;11.13;10.02;;;;;;;18.42;56.50;99796.25;5069774;28;20441;-79
2023/05/09 05:29:17;;;;;;;11.88;9.65;;;;;;;18.47;56.71;99802.03;5070074;28;20044;-80
2023/05/09 05:31:43;;;;;;;11.82;10.15;;;;;;;18.52;56.57;99798.94;5069822;28;20571;-80
2023/05/09 05:34:10;;;;;;;10.95;9.02;;;;;;;18.56;56.79;99806.53;5070142;28;20048;-80
2023/05/09 05:36:36;;;;;;;11.15;9.93;;;;;;;18.60;56.54;99807.94;5069359;28;20044;-80
2023/05/09 05:39:03;;;;;;;11.00;9.43;;;;;;;18.66;56.56;99806.53;5069865;28;20048;-80
2023/05/09 05:41:29;;;;;;;10.50;9.45;;;;;;;18.72;56.42;99799.78;5069831;28;20076;-80
2023/05/09 05:43:56;;;;;;;12.73;9.88;;;;;;;18.77;56.58;99800.22;5070172;28;20544;-80
2023/05/09 05:46:22;;;;;;;10.90;9.80;;;;;;;18.82;56.53;99789.97;5069506;28;20461;-80
2023/05/09 05:48:49;;;;;;;11.88;10.43;;;;;;;18.88;56.42;99799.25;5069602;28;20083;-80
2023/05/09 05:51:15;;;;;;;12.38;10.93;;;;;;;18.92;56.31;99792.66;5070015;28;20098;-80
2023/05/09 05:53:42;;;;;;;10.90;9.80;;;;;;;18.97;56.29;99795.72;5069910;28;20052;-80
2023/05/09 05:56:08;;;;;;;12.82;10.65;;;;;;;19.02;56.42;99784.63;5068157;28;20482;-80
2023/05/09 05:58:34;;;;;;;11.55;10.10;;;;;;;19.10;56.58;99787.44;5067876;28;20049;-80
2023/05/09 06:01:01;;;;;;;14.27;10.60;;;;;;;19.15;56.28;99789.72;5068443;28;20087;-80
2023/05/09 06:03:27;;;;;;;11.05;9.98;;;;;;;19.22;56.55;99790.78;5069849;28;20133;-80
2023/05/09 06:05:54;;;;;;;13.32;10.93;;;;;;;19.25;56.00;99785.19;5069182;28;20512;-80
2023/05/09 06:08:21;;;;;;;14.27;11.90;;;;;;;19.31;55.76;99785.59;5068081;28;20132;-80
2023/05/09 06:10:47;;;;;;;12.90;11.13;;;;;;;19.34;56.30;99782.63;5069538;28;20048;-81
2023/05/09 06:13:13;;;;;;;13.50;11.38;;;;;;;19.37;56.17;99782.34;5089755;22;20045;-78
2023/05/09 06:15:40;;;;;;;11.80;10.55;;;;;;;19.40;55.96;99782.09;5053834;28;20053;-79
2023/05/09 06:18:07;;;;;;;15.82;11.98;;;;;;;19.45;56.19;99778.97;5053944;28;20048;-78
2023/05/09 06:20:34;;;;;;;10.90;9.65;;;;;;;19.49;56.07;99769.69;5053948;28;20049;-78
2023/05/09 06:23:01;;;;;;;13.02;11.63;;;;;;;19.53;56.00;99765.72;5054142;28;20056;-78
2023/05/09 06:25:27;;;;;;;12.23;10.88;;;;;;;19.58;56.13;99762.63;5053736;28;20045;-79
2023/05/09 06:27:54;;;;;;;13.73;10.57;;;;;;;19.62;56.23;99772.03;5053661;28;20081;-79
2023/05/09 06:30:21;;;;;;;13.93;11.27;;;;;;;19.66;56.05;99768.06;5053754;28;20509;-78
2023/05/09 06:32:53;;;;;;;12.52;11.23;;;;;;;19.72;55.98;99755.94;5054064;28;20063;-78
2023/05/09 06:35:20;;;;;;;12.07;10.80;;;;;;;19.75;56.06;99751.19;5052228;28;20053;-78
2023/05/09 06:37:47;;;;;;;13.40;11.02;;;;;;;19.82;56.09;99754.09;5053497;28;20079;-78
2023/05/09 06:40:15;;;;;;;14.80;11.38;;;;;;;19.87;55.83;99754.50;5053646;28;20041;-78
2023/05/09 06:42:41;;;;;;;16.88;12.32;;;;;;;19.91;56.17;99745.19;5053456;28;20498;-78
2023/05/09 06:45:17;;;;;;;13.15;11.43;;;;;;;19.94;56.29;99752.06;5053260;28;20233;-78
2023/05/09 06:47:44;;;;;;;14.45;12.30;;;;;;;20.04;55.88;99738.69;5051054;28;20057;-79
2023/05/09 06:50:11;;;;;;;13.30;11.90;;;;;;;20.11;55.80;99742.41;5052574;28;20493;-79
2023/05/09 06:52:37;;;;;;;14.48;12.05;;;;;;;20.16;55.74;99739.31;5053491;28;20047;-78
2023/05/09 06:55:05;;;;;;;13.45;11.88;;;;;;;20.21;55.31;99737.03;5053061;28;20114;-76
2023/05/09 06:57:31;;;;;;;16.27;12.90;;;;;;;20.25;55.31;99732.19;5052870;28;20052;-76
2023/05/09 06:59:58;;;;;;;14.32;11.50;;;;;;;20.29;55.38;99731.75;5053232;28;20140;-76
2023/05/09 07:02:24;;;;;;;12.65;11.35;;;;;;;20.32;55.08;99727.94;5053477;28;20084;-76
2023/05/09 07:04:51;;;;;;;13.13;11.63;;;;;;;20.35;55.31;99732.13;5052998;28;20540;-76
2023/05/09 07:07:19;;;;;;;13.07;11.20;;;;;;;20.37;55.38;99720.28;5052408;28;20497;-76
2023/05/09 07:09:46;;;;;;;14.57;12.52;;;;;;;20.39;54.88;99726.34;5053125;28;20048;-76
2023/05/09 07:12:16;;;;;;;16.30;12.70;;;;;;;20.40;54.87;99713.81;5053535;28;20110;-76
2023/05/09 07:14:42;;;;;;;14.63;12.15;;;;;;;20.41;54.75;99715.50;5053188;28;20044;-75
2023/05/09 07:17:09;;;;;;;15.02;12.48;;;;;;;20.39;54.65;99702.28;5052748;28;20060;-76
2023/05/09 07:19:48;;;;;;;16.88;13.32;;;;;;;20.38;54.60;99705.97;5053033;28;20103;-76
2023/05/09 07:22:15;;;;;;;14.45;12.95;;;;;;;20.37;54.85;99706.94;5051738;28;20056;-75
2023/05/09 07:24:43;;;;;;;14.35;12.85;;;;;;;20.37;55.09;99703.44;5051308;28;20045;-78
2023/05/09 07:27:09;;;;;;;18.25;12.93;;;;;;;20.36;54.83;99702.59;5052555;28;20082;-76
2023/05/09 07:29:36;;;;;;;15.50;12.57;;;;;;;20.36;55.29;99697.25;5053055;28;20045;-76
2023/05/09 07:32:03;;;;;;;13.70;12.18;;;;;;;20.37;55.15;99696.25;5051815;28;20579;-75
2023/05/09 07:34:29;;;;;;;13.93;12.20;;;;;;;20.39;55.31;99694.28;5052810;28;20389;-76
2023/05/09 07:36:57;;;;;;;14.82;13.10;;;;;;;20.41;55.37;99694.94;5052042;28;20132;-76
2023/05/09 07:39:24;;;;;;;13.73;12.02;;;;;;;20.47;55.65;99693.50;5052826;28;20139;-76
2023/05/09 07:41:50;;;;;;;14.93;13.15;;;;;;;20.54;55.70;99693.72;5052740;28;20080;-76
2023/05/09 07:44:17;;;;;;;15.15;13.57;;;;;;;20.62;56.06;99683.09;5052781;28;20041;-77
2023/05/09 07:46:43;;;;;;;18.30;13.82;;;;;;;20.71;56.18;99684.00;5051769;28;20409;-76
2023/05/09 07:49:10;;;;;;;14.50;12.18;;;;;;;20.81;55.98;99679.38;5051168;28;20524;-76
2023/05/09 07:51:36;;;;;;;16.30;13.10;;;;;;;20.91;55.82;99676.66;5052310;28;20060;-78
2023/05/09 07:54:03;;;;;;;16.42;14.15;;;;;;;21.00;55.63;99671.34;5052567;28;20056;-76
2023/05/09 07:56:29;;;;;;;17.45;14.30;;;;;;;21.07;55.35;99667.03;5051944;28;20128;-77
2023/05/09 07:58:56;;;;;;;15.15;13.52;;;;;;;21.14;55.31;99673.44;5051863;28;20080;-77
2023/05/09 08:01:22;;;;;;;16.40;13.38;;;;;;;21.19;55.38;99673.78;5052205;28;20080;-77
2023/05/09 08:03:49;;;;;;;16.13;13.48;;;;;;;21.25;55.00;99663.44;5052157;28;20140;-77
2023/05/09 08:06:16;;;;;;;16.85;13.77;;;;;;;21.29;55.09;99667.47;5052003;28;20053;-76
2023/05/09 08:08:42;;;;;;;15.18;13.57;;;;;;;21.32;55.25;99659.13;5051813;28;20147;-76
2023/05/09 08:11:09;;;;;;;18.35;13.85;;;;;;;21.35;54.39;99650.78;5052230;28;20076;-76
2023/05/09 08:13:36;;;;;;;14.90;13.38;;;;;;;21.36;55.42;99652.47;5052061;28;20084;-76
2023/05/09 08:16:02;;;;;;;16.27;13.70;;;;;;;21.38;54.88;99641.59;5051666;28;20094;-76
2023/05/09 08:18:29;;;;;;;15.98;14.25;;;;;;;21.39;54.66;99654.81;5050342;28;20059;-76
2023/05/09 08:20:58;;;;;;;16.67;14.15;;;;;;;21.39;54.66;99657.50;5050473;28;20504;-76
2023/05/09 08:23:25;;;;;;;15.20;13.60;;;;;;;21.39;54.67;99643.25;5051833;28;20072;-76
2023/05/09 08:25:53;;;;;;;15.73;14.00;;;;;;;21.38;54.48;99645.09;5051456;28;20048;-76
2023/05/09 08:28:22;;;;;;;17.48;14.55;;;;;;;21.36;54.17;99652.47;5051238;28;20537;-76
2023/05/09 08:30:50;;;;;;;14.18;12.32;;;;;;;21.32;54.55;99653.78;5051714;28;20059;-77
2023/05/09 08:33:17;;;;;;;15.45;13.63;;;;;;;21.28;54.46;99642.56;5051468;28;20080;-76
2023/05/09 08:35:43;;;;;;;18.42;14.98;;;;;;;21.23;54.53;99634.16;5050327;28;20505;-77
2023/05/09 08:38:10;;;;;;;19.17;14.90;;;;;;;21.18;54.63;99640.00;5051036;28;20063;-76
2023/05/09 08:40:36;;;;;;;15.70;14.07;;;;;;;21.16;54.54;99639.31;5051419;28;20486;-76
2023/05/09 08:43:06;;;;;;;16.92;13.45;;;;;;;21.09;54.83;99633.75;5051410;28;20052;-76
2023/05/09 08:46:05;;;;;;;17.55;14.95;;;;;;;21.02;55.07;99630.06;5051054;28;20135;-76
2023/05/09 08:48:36;;;;;;;16.10;14.40;;;;;;;21.05;54.92;99632.41;5050678;28;20079;-76
2023/05/09 08:51:06;;;;;;;19.00;14.82;;;;;;;21.01;55.05;99624.84;5051221;28;20497;-76
2023/05/09 08:53:33;;;;;;;16.98;14.35;;;;;;;21.00;54.85;99625.88;5051151;28;20053;-76
2023/05/09 08:56:01;;;;;;;18.17;15.63;;;;;;;20.96;55.24;99620.81;5050808;28;20065;-76
2023/05/09 08:58:29;;;;;;;16.85;14.02;;;;;;;20.93;55.16;99615.78;5050601;28;20056;-76
2023/05/09 09:00:56;;;;;;;17.15;15.18;;;;;;;20.92;55.61;99621.28;5050033;28;20106;-76
2023/05/09 09:03:25;;;;;;;16.92;14.23;;;;;;;20.91;55.72;99615.13;5050952;28;20049;-77
2023/05/09 09:05:53;;;;;;;17.00;14.18;;;;;;;20.91;55.92;99620.47;5050719;28;20168;-76
2023/05/09 09:08:22;;;;;;;16.52;14.60;;;;;;;20.91;56.13;99607.09;5050596;28;20293;-76
2023/05/09 09:10:49;;;;;;;17.23;14.75;;;;;;;20.96;56.32;99609.28;5050809;28;20048;-76
2023/05/09 09:13:16;;;;;;;17.38;14.98;;;;;;;20.98;56.22;99607.28;5049530;28;20525;-76
2023/05/09 09:15:45;;;;;;;16.08;14.38;;;;;;;21.01;56.25;99609.63;5050583;28;20081;-76
2023/05/09 09:18:19;;;;;;;17.13;14.07;;;;;;;21.04;56.26;99605.81;5050261;28;20645;-76
2023/05/09 09:20:55;;;;;;;17.73;14.73;;;;;;;21.06;56.19;99609.16;5050778;28;20413;-77
2023/05/09 09:23:24;;;;;;;16.92;14.48;;;;;;;21.10;55.99;99605.16;5050477;28;20458;-77
2023/05/09 09:26:16;;;;;;;15.70;13.82;;;;;;;21.08;56.37;99599.97;5050429;28;20147;-75
2023/05/09 09:28:43;;;;;;;16.67;14.65;;;;;;;21.17;55.91;99592.81;5046404;28;20052;-76
2023/05/09 09:31:24;;;;;;;14.60;13.02;;;;;;;21.17;56.35;99587.47;5050581;28;20052;-76
2023/05/09 09:33:50;;;;;;;15.38;13.60;;;;;;;21.25;56.32;99581.31;5050585;28;20135;-76
2023/05/09 09:36:27;;;;;;;16.73;14.77;;;;;;;21.29;56.57;99579.97;5050299;28;20106;-76
2023/05/09 09:39:03;;;;;;;15.82;12.82;;;;;;;21.43;56.70;99577.69;5050282;28;20053;-76
2023/05/09 09:41:35;;;;;;;15.63;13.93;;;;;;;21.60;56.94;99571.34;5050458;28;20132;-77
2023/05/09 09:44:09;;;;;;;15.45;12.98;;;;;;;21.77;57.11;99559.84;5049119;28;20053;-76
2023/05/09 09:46:51;;;;;;;15.40;13.73;;;;;;;21.97;56.86;99568.41;5049740;28;20084;-76
2023/05/09 09:49:24;;;;;;;17.08;13.98;;;;;;;22.18;56.79;99559.88;5050593;28;20057;-75
2023/05/09 09:51:52;;;;;;;;;;;;;;;22.36;56.58;99558.88;5049765;28;20128;-77
2023/05/09 09:54:18;;;;;;;13.48;12.07;;;;;;;22.60;55.65;99551.78;5050336;28;19921;-76
2023/05/09 09:56:52;;;;;;;13.55;12.18;;;;;;;22.72;54.58;99545.06;5048207;28;20059;-77
2023/05/09 09:59:20;;;;;;;14.98;13.48;;;;;;;22.84;54.24;99558.13;5050342;28;20064;-76
2023/05/09 10:02:02;;;;;;;14.27;12.77;;;;;;;22.83;54.11;99545.72;5048914;28;20049;-76
2023/05/09 10:04:34;;;;;;;14.35;12.95;;;;;;;22.88;53.95;99543.34;5050201;28;20053;-75
2023/05/09 10:07:04;;;;;;;14.20;12.52;;;;;;;22.86;53.89;99537.28;5049282;28;20124;-76
2023/05/09 10:09:34;;;;;;;13.20;11.88;;;;;;;22.84;54.39;99542.84;5049257;28;20052;-77
2023/05/09 10:12:03;;;;;;;12.95;11.70;;;;;;;22.85;54.43;99535.63;5050248;28;20099;-76
2023/05/09 10:14:31;;;;;;;13.23;11.85;;;;;;;22.88;54.19;99528.06;5050066;28;20053;-76
2023/05/09 10:17:02;;;;;;;13.45;12.10;;;;;;;22.93;54.01;99527.56;5049459;28;20734;-76
2023/05/09 10:19:30;;;;;;;13.10;11.80;;;;;;;22.97;53.61;99522.66;5049988;28;20045;-76
2023/05/09 10:22:04;;;;;;;14.60;11.50;;;;;;;22.98;54.00;99519.81;5050093;28;20045;-77
2023/05/09 10:24:39;;;;;;;13.07;11.73;;;;;;;23.01;53.74;99514.09;5050220;28;20136;-76
2023/05/09 10:27:09;;;;;;;13.02;11.75;;;;;;;23.04;53.10;99511.06;5048276;28;20049;-77
2023/05/09 10:29:53;;;;;;;15.57;12.30;;;;;;;23.02;53.02;99509.53;5050004;28;20053;-77
2023/05/09 10:32:30;;;;;;;14.27;12.50;;;;;;;23.00;52.86;99507.06;5050039;28;20052;-76
2023/05/09 10:35:03;;;;;;;14.32;12.65;;;;;;;22.98;52.83;99510.91;5049729;28;20075;-76
2023/05/09 10:37:30;;;;;;;;;;;;;;;22.89;53.10;99502.91;5050186;28;20096;-76
2023/05/09 10:40:01;;;;;;;15.80;12.07;;;;;;;22.87;53.34;99502.25;5049919;28;19947;-76
2023/05/09 10:42:29;;;;;;;13.57;12.00;;;;;;;22.76;53.76;99492.72;5049787;28;20139;-76
2023/05/09 10:44:56;;;;;;;13.40;11.98;;;;;;;22.68;54.05;99487.38;5049737;28;20115;-76
2023/05/09 10:47:27;;;;;;;14.00;12.45;;;;;;;22.61;55.23;99491.78;5049552;28;20136;-76
2023/05/09 10:49:54;;;;;;;13.93;11.90;;;;;;;22.59;54.99;99486.59;5049899;28;20140;-76
2023/05/09 10:52:21;;;;;;;14.00;12.57;;;;;;;22.58;55.90;99481.41;5049664;28;20057;-76
2023/05/09 10:55:00;;;;;;;13.40;12.02;;;;;;;22.57;56.18;99477.06;5049402;28;20395;-75
2023/05/09 10:57:28;;;;;;;14.18;12.77;;;;;;;22.65;56.50;99469.78;5049865;28;20219;-76
2023/05/09 10:59:56;;;;;;;12.88;11.50;;;;;;;22.74;56.31;99462.56;5051963;28;20084;-76
2023/05/09 11:02:29;;;;;;;14.82;13.32;;;;;;;22.86;56.42;99462.16;5052201;28;20045;-76
2023/05/09 11:05:13;;;;;;;14.45;12.75;;;;;;;22.98;56.80;99459.91;5052896;28;20592;-76
2023/05/09 11:07:40;;;;;;;15.98;13.23;;;;;;;23.18;56.32;99452.25;5052902;28;20048;-76
2023/05/09 11:10:16;;;;;;;15.05;13.05;;;;;;;23.32;56.15;99457.88;5053311;28;20051;-76
2023/05/09 11:12:54;;;;;;;14.25;12.85;;;;;;;23.43;56.01;99455.63;5053030;28;20127;-76
2023/05/09 11:15:25;;;;;;;13.40;12.10;;;;;;;23.58;55.50;99452.16;5052944;28;20106;-76
2023/05/09 11:18:09;;;;;;;14.27;12.88;;;;;;;23.63;55.25;99449.75;5052685;28;20053;-76
2023/05/09 11:20:42;;;;;;;14.98;13.38;;;;;;;23.73;54.97;99444.13;5051861;28;20048;-77
2023/05/09 11:23:11;;;;;;;14.88;13.35;;;;;;;23.84;54.47;99440.19;5053176;28;20056;-76
2023/05/09 11:25:38;;;;;;;14.95;13.35;;;;;;;23.90;54.87;99442.16;5052578;28;20477;-77
2023/05/09 11:28:05;;;;;;;16.67;13.25;;;;;;;23.93;53.96;99436.38;5052584;28;20060;-76